Terminal Aerodrome Forecast
Issued by NWS Sioux Falls, SD

Home | Current Version | Previous Version | Graphics & Text | Print | Product List | Glossary On
Versions: 1 2 3 4 5 6 7 8 9 10 11 12 13 14 15 16 17 18 19 20 21 22
185
FTUS43 KFSD 041730
TAFHON
TAF
KHON 041730Z 0418/0518 34010KT P6SM SCT030
     FM042000 31008KT P6SM SCT040
     FM042300 VRB03KT P6SM SKC
     FM050600 15007KT P6SM BKN120
     FM051200 17008KT P6SM OVC050
     FM051500 20008KT P6SM OVC030=

USA.gov is the U.S. government's official web portal to all federal, state and local government web resources and services.